sensor_id;sensor_type;location;lat;lon;timestamp;temperature;humidity
65404;DHT22;52014;52.088;5.096;2023-05-07T00:02:23;16.10;99.90
65404;DHT22;52014;52.088;5.096;2023-05-07T00:04:48;16.10;99.90
65404;DHT22;52014;52.088;5.096;2023-05-07T00:07:14;16.10;99.90
65404;DHT22;52014;52.088;5.096;2023-05-07T00:09:39;16.10;99.90
65404;DHT22;52014;52.088;5.096;2023-05-07T00:12:05;16.10;99.90
65404;DHT22;52014;52.088;5.096;2023-05-07T00:14:30;16.10;99.90
65404;DHT22;52014;52.088;5.096;2023-05-07T00:16:56;16.10;99.90
65404;DHT22;52014;52.088;5.096;2023-05-07T00:19:21;16.00;99.90
65404;DHT22;52014;52.088;5.096;2023-05-07T00:21:47;16.00;99.90
65404;DHT22;52014;52.088;5.096;2023-05-07T00:24:12;16.00;99.90
65404;DHT22;52014;52.088;5.096;2023-05-07T00:26:38;16.10;99.90
65404;DHT22;52014;52.088;5.096;2023-05-07T00:29:03;16.00;99.90
65404;DHT22;52014;52.088;5.096;2023-05-07T00:31:29;16.00;99.90
65404;DHT22;52014;52.088;5.096;2023-05-07T00:33:54;16.00;99.90
65404;DHT22;52014;52.088;5.096;2023-05-07T00:36:19;16.00;99.90
65404;DHT22;52014;52.088;5.096;2023-05-07T00:38:45;16.00;99.90
65404;DHT22;52014;52.088;5.096;2023-05-07T00:41:10;16.00;99.90
65404;DHT22;52014;52.088;5.096;2023-05-07T00:43:36;16.00;99.90
65404;DHT22;52014;52.088;5.096;2023-05-07T00:46:01;16.00;99.90
65404;DHT22;52014;52.088;5.096;2023-05-07T00:48:27;16.00;99.90
65404;DHT22;52014;52.088;5.096;2023-05-07T00:50:52;16.00;99.90
65404;DHT22;52014;52.088;5.096;2023-05-07T00:53:18;16.00;99.90
65404;DHT22;52014;52.088;5.096;2023-05-07T00:55:43;16.00;99.90
65404;DHT22;52014;52.088;5.096;2023-05-07T00:58:09;16.00;99.90
65404;DHT22;52014;52.088;5.096;2023-05-07T01:00:35;16.00;99.90
65404;DHT22;52014;52.088;5.096;2023-05-07T01:03:01;16.00;99.90
65404;DHT22;52014;52.088;5.096;2023-05-07T01:05:26;16.00;99.90
65404;DHT22;52014;52.088;5.096;2023-05-07T01:07:53;16.00;99.90
65404;DHT22;52014;52.088;5.096;2023-05-07T01:10:19;15.90;99.90
65404;DHT22;52014;52.088;5.096;2023-05-07T01:12:45;16.00;99.90
65404;DHT22;52014;52.088;5.096;2023-05-07T01:15:12;15.90;99.90
65404;DHT22;52014;52.088;5.096;2023-05-07T01:17:39;16.00;99.90
65404;DHT22;52014;52.088;5.096;2023-05-07T01:20:05;16.00;99.90
65404;DHT22;52014;52.088;5.096;2023-05-07T01:22:35;16.00;99.90
65404;DHT22;52014;52.088;5.096;2023-05-07T01:25:04;16.00;99.90
65404;DHT22;52014;52.088;5.096;2023-05-07T01:27:30;16.10;99.90
65404;DHT22;52014;52.088;5.096;2023-05-07T01:29:55;16.00;99.90
65404;DHT22;52014;52.088;5.096;2023-05-07T01:33:04;16.00;99.90
65404;DHT22;52014;52.088;5.096;2023-05-07T01:35:11;16.00;99.90
65404;DHT22;52014;52.088;5.096;2023-05-07T01:37:37;16.00;99.90
65404;DHT22;52014;52.088;5.096;2023-05-07T01:40:02;16.00;99.90
65404;DHT22;52014;52.088;5.096;2023-05-07T01:42:28;16.00;99.90
65404;DHT22;52014;52.088;5.096;2023-05-07T01:44:54;16.00;99.90
65404;DHT22;52014;52.088;5.096;2023-05-07T01:47:19;15.90;99.90
65404;DHT22;52014;52.088;5.096;2023-05-07T01:49:45;16.00;99.90
65404;DHT22;52014;52.088;5.096;2023-05-07T01:52:11;16.00;99.90
65404;DHT22;52014;52.088;5.096;2023-05-07T01:54:37;15.90;99.90
65404;DHT22;52014;52.088;5.096;2023-05-07T01:57:03;16.00;99.90
65404;DHT22;52014;52.088;5.096;2023-05-07T01:59:28;16.00;99.90
65404;DHT22;52014;52.088;5.096;2023-05-07T02:01:53;15.90;99.90
65404;DHT22;52014;52.088;5.096;2023-05-07T02:04:19;16.00;99.90
65404;DHT22;52014;52.088;5.096;2023-05-07T02:06:44;15.90;99.90
65404;DHT22;52014;52.088;5.096;2023-05-07T02:09:10;15.90;99.90
65404;DHT22;52014;52.088;5.096;2023-05-07T02:11:36;15.90;99.90
65404;DHT22;52014;52.088;5.096;2023-05-07T02:14:01;15.90;99.90
65404;DHT22;52014;52.088;5.096;2023-05-07T02:16:27;15.90;99.90
65404;DHT22;52014;52.088;5.096;2023-05-07T02:18:52;15.90;99.90
65404;DHT22;52014;52.088;5.096;2023-05-07T02:21:17;15.80;99.90
65404;DHT22;52014;52.088;5.096;2023-05-07T02:23:43;15.90;99.90
65404;DHT22;52014;52.088;5.096;2023-05-07T02:26:08;15.90;99.90
65404;DHT22;52014;52.088;5.096;2023-05-07T02:28:34;15.90;99.90
65404;DHT22;52014;52.088;5.096;2023-05-07T02:31:05;15.80;99.90
65404;DHT22;52014;52.088;5.096;2023-05-07T02:33:31;15.90;99.90
65404;DHT22;52014;52.088;5.096;2023-05-07T02:35:56;16.00;99.90
65404;DHT22;52014;52.088;5.096;2023-05-07T02:38:22;15.90;99.90
65404;DHT22;52014;52.088;5.096;2023-05-07T02:40:47;15.80;99.90
65404;DHT22;52014;52.088;5.096;2023-05-07T02:43:13;15.80;99.90
65404;DHT22;52014;52.088;5.096;2023-05-07T02:45:38;15.80;99.90
65404;DHT22;52014;52.088;5.096;2023-05-07T02:48:04;15.80;99.90
65404;DHT22;52014;52.088;5.096;2023-05-07T02:50:31;15.80;99.90
65404;DHT22;52014;52.088;5.096;2023-05-07T02:52:57;15.80;99.90
65404;DHT22;52014;52.088;5.096;2023-05-07T02:55:23;15.80;99.90
65404;DHT22;52014;52.088;5.096;2023-05-07T02:57:48;15.80;99.90
65404;DHT22;52014;52.088;5.096;2023-05-07T03:00:14;15.80;99.90
65404;DHT22;52014;52.088;5.096;2023-05-07T03:02:40;15.80;99.90
65404;DHT22;52014;52.088;5.096;2023-05-07T03:05:06;15.70;99.90
65404;DHT22;52014;52.088;5.096;2023-05-07T03:07:32;15.70;99.90
65404;DHT22;52014;52.088;5.096;2023-05-07T03:09:57;15.80;99.90
65404;DHT22;52014;52.088;5.096;2023-05-07T03:12:23;15.70;99.90
65404;DHT22;52014;52.088;5.096;2023-05-07T03:14:48;15.70;99.90
65404;DHT22;52014;52.088;5.096;2023-05-07T03:17:13;15.70;99.90
65404;DHT22;52014;52.088;5.096;2023-05-07T03:19:39;15.60;99.90
65404;DHT22;52014;52.088;5.096;2023-05-07T03:22:04;15.60;99.90
65404;DHT22;52014;52.088;5.096;2023-05-07T03:24:30;15.60;99.90
65404;DHT22;52014;52.088;5.096;2023-05-07T03:26:56;15.60;99.90
65404;DHT22;52014;52.088;5.096;2023-05-07T03:29:23;15.60;99.90
65404;DHT22;52014;52.088;5.096;2023-05-07T03:31:48;15.50;99.90
65404;DHT22;52014;52.088;5.096;2023-05-07T03:34:13;15.50;99.90
65404;DHT22;52014;52.088;5.096;2023-05-07T03:36:39;15.50;99.90
65404;DHT22;52014;52.088;5.096;2023-05-07T03:39:04;15.50;99.90
65404;DHT22;52014;52.088;5.096;2023-05-07T03:41:30;15.50;99.90
65404;DHT22;52014;52.088;5.096;2023-05-07T03:43:55;15.40;99.90
65404;DHT22;52014;52.088;5.096;2023-05-07T03:46:21;15.40;99.90
65404;DHT22;52014;52.088;5.096;2023-05-07T03:48:46;15.50;99.90
65404;DHT22;52014;52.088;5.096;2023-05-07T03:51:12;15.50;99.90
65404;DHT22;52014;52.088;5.096;2023-05-07T03:53:37;15.50;99.90
65404;DHT22;52014;52.088;5.096;2023-05-07T03:56:03;15.50;99.90
65404;DHT22;52014;52.088;5.096;2023-05-07T03:58:28;15.50;99.90
65404;DHT22;52014;52.088;5.096;2023-05-07T04:00:54;15.50;99.90
65404;DHT22;52014;52.088;5.096;2023-05-07T04:03:19;15.50;99.90
65404;DHT22;52014;52.088;5.096;2023-05-07T04:05:44;15.50;99.90
65404;DHT22;52014;52.088;5.096;2023-05-07T04:08:10;15.60;99.90
65404;DHT22;52014;52.088;5.096;2023-05-07T04:10:35;15.50;99.90
65404;DHT22;52014;52.088;5.096;2023-05-07T04:13:01;15.60;99.90
65404;DHT22;52014;52.088;5.096;2023-05-07T04:15:26;15.60;99.90
65404;DHT22;52014;52.088;5.096;2023-05-07T04:17:52;15.60;99.90
65404;DHT22;52014;52.088;5.096;2023-05-07T04:20:17;15.60;99.90
65404;DHT22;52014;52.088;5.096;2023-05-07T04:22:43;15.60;99.90
65404;DHT22;52014;52.088;5.096;2023-05-07T04:25:08;15.60;99.90
65404;DHT22;52014;52.088;5.096;2023-05-07T04:27:34;15.60;99.90
65404;DHT22;52014;52.088;5.096;2023-05-07T04:30:00;15.60;99.90
65404;DHT22;52014;52.088;5.096;2023-05-07T04:32:26;15.60;99.90
65404;DHT22;52014;52.088;5.096;2023-05-07T04:34:51;15.60;99.90
65404;DHT22;52014;52.088;5.096;2023-05-07T04:37:17;15.60;99.90
65404;DHT22;52014;52.088;5.096;2023-05-07T04:39:42;15.60;99.90
65404;DHT22;52014;52.088;5.096;2023-05-07T04:42:07;15.70;99.90
65404;DHT22;52014;52.088;5.096;2023-05-07T04:44:34;15.70;99.90
65404;DHT22;52014;52.088;5.096;2023-05-07T04:47:00;15.60;99.90
65404;DHT22;52014;52.088;5.096;2023-05-07T04:49:25;15.70;99.90
65404;DHT22;52014;52.088;5.096;2023-05-07T04:51:51;15.70;99.90
65404;DHT22;52014;52.088;5.096;2023-05-07T04:54:16;15.70;99.90
65404;DHT22;52014;52.088;5.096;2023-05-07T04:56:42;15.70;99.90
65404;DHT22;52014;52.088;5.096;2023-05-07T04:59:07;15.70;99.90
65404;DHT22;52014;52.088;5.096;2023-05-07T05:01:33;15.70;99.90
65404;DHT22;52014;52.088;5.096;2023-05-07T05:03:58;15.70;99.90
65404;DHT22;52014;52.088;5.096;2023-05-07T05:06:25;15.70;99.90
65404;DHT22;52014;52.088;5.096;2023-05-07T05:08:50;15.70;99.90
65404;DHT22;52014;52.088;5.096;2023-05-07T05:11:16;15.70;99.90
65404;DHT22;52014;52.088;5.096;2023-05-07T05:13:41;15.80;99.90
65404;DHT22;52014;52.088;5.096;2023-05-07T05:16:07;15.80;99.90
65404;DHT22;52014;52.088;5.096;2023-05-07T05:18:32;15.80;99.90
65404;DHT22;52014;52.088;5.096;2023-05-07T05:20:58;15.80;99.90
65404;DHT22;52014;52.088;5.096;2023-05-07T05:23:23;15.80;99.90
65404;DHT22;52014;52.088;5.096;2023-05-07T05:25:49;15.80;99.90
65404;DHT22;52014;52.088;5.096;2023-05-07T05:28:14;15.80;99.90
65404;DHT22;52014;52.088;5.096;2023-05-07T05:30:40;15.80;99.90
65404;DHT22;52014;52.088;5.096;2023-05-07T05:33:05;15.90;99.90
65404;DHT22;52014;52.088;5.096;2023-05-07T05:35:31;15.90;99.90
65404;DHT22;52014;52.088;5.096;2023-05-07T05:37:57;15.90;99.90
65404;DHT22;52014;52.088;5.096;2023-05-07T05:40:22;15.90;99.90
65404;DHT22;52014;52.088;5.096;2023-05-07T05:42:47;15.90;99.90
65404;DHT22;52014;52.088;5.096;2023-05-07T05:45:13;15.90;99.90
65404;DHT22;52014;52.088;5.096;2023-05-07T05:47:38;15.90;99.90
65404;DHT22;52014;52.088;5.096;2023-05-07T05:50:05;15.80;99.90
65404;DHT22;52014;52.088;5.096;2023-05-07T05:52:31;15.80;99.90
65404;DHT22;52014;52.088;5.096;2023-05-07T05:54:56;15.80;99.90
65404;DHT22;52014;52.088;5.096;2023-05-07T05:57:22;15.80;99.90
65404;DHT22;52014;52.088;5.096;2023-05-07T05:59:47;15.80;99.90
65404;DHT22;52014;52.088;5.096;2023-05-07T06:02:13;15.90;99.90
65404;DHT22;52014;52.088;5.096;2023-05-07T06:04:38;15.80;99.90
65404;DHT22;52014;52.088;5.096;2023-05-07T06:07:04;15.70;99.90
65404;DHT22;52014;52.088;5.096;2023-05-07T06:09:29;15.80;99.90
65404;DHT22;52014;52.088;5.096;2023-05-07T06:11:54;15.80;99.90
65404;DHT22;52014;52.088;5.096;2023-05-07T06:14:20;15.80;99.90
65404;DHT22;52014;52.088;5.096;2023-05-07T06:16:45;15.80;99.90
65404;DHT22;52014;52.088;5.096;2023-05-07T06:19:11;15.90;99.90
65404;DHT22;52014;52.088;5.096;2023-05-07T06:21:36;16.00;99.90
65404;DHT22;52014;52.088;5.096;2023-05-07T06:24:02;16.00;99.90
65404;DHT22;52014;52.088;5.096;2023-05-07T06:26:27;16.00;99.90
65404;DHT22;52014;52.088;5.096;2023-05-07T06:28:53;16.10;99.90
65404;DHT22;52014;52.088;5.096;2023-05-07T06:31:19;16.10;99.90
65404;DHT22;52014;52.088;5.096;2023-05-07T06:33:47;16.10;99.90
65404;DHT22;52014;52.088;5.096;2023-05-07T06:36:13;16.00;99.90
65404;DHT22;52014;52.088;5.096;2023-05-07T06:38:38;16.10;99.90
65404;DHT22;52014;52.088;5.096;2023-05-07T06:41:05;16.20;99.90
65404;DHT22;52014;52.088;5.096;2023-05-07T06:43:30;16.10;99.90
65404;DHT22;52014;52.088;5.096;2023-05-07T06:45:56;16.10;99.90
65404;DHT22;52014;52.088;5.096;2023-05-07T06:48:21;16.10;99.90
65404;DHT22;52014;52.088;5.096;2023-05-07T06:50:46;16.20;99.90
65404;DHT22;52014;52.088;5.096;2023-05-07T06:53:12;16.20;99.90
65404;DHT22;52014;52.088;5.096;2023-05-07T06:55:37;16.30;99.90
65404;DHT22;52014;52.088;5.096;2023-05-07T06:58:06;16.30;99.90
65404;DHT22;52014;52.088;5.096;2023-05-07T07:00:32;16.30;99.90
65404;DHT22;52014;52.088;5.096;2023-05-07T07:02:58;16.40;99.90
65404;DHT22;52014;52.088;5.096;2023-05-07T07:05:24;16.30;99.90
65404;DHT22;52014;52.088;5.096;2023-05-07T07:07:49;16.30;99.90
65404;DHT22;52014;52.088;5.096;2023-05-07T07:10:21;16.30;99.90
65404;DHT22;52014;52.088;5.096;2023-05-07T07:12:46;16.40;99.90
65404;DHT22;52014;52.088;5.096;2023-05-07T07:15:13;16.60;99.90
65404;DHT22;52014;52.088;5.096;2023-05-07T07:17:38;16.70;99.90
65404;DHT22;52014;52.088;5.096;2023-05-07T07:20:04;16.80;99.90
65404;DHT22;52014;52.088;5.096;2023-05-07T07:22:29;16.80;99.90
65404;DHT22;52014;52.088;5.096;2023-05-07T07:24:55;16.80;99.90
65404;DHT22;52014;52.088;5.096;2023-05-07T07:27:20;17.00;99.90
65404;DHT22;52014;52.088;5.096;2023-05-07T07:29:46;16.90;99.90
65404;DHT22;52014;52.088;5.096;2023-05-07T07:32:11;17.00;99.90
65404;DHT22;52014;52.088;5.096;2023-05-07T07:34:37;17.00;99.90
65404;DHT22;52014;52.088;5.096;2023-05-07T07:37:02;17.00;99.90
65404;DHT22;52014;52.088;5.096;2023-05-07T07:39:30;16.90;99.90
65404;DHT22;52014;52.088;5.096;2023-05-07T07:41:56;17.00;99.90
65404;DHT22;52014;52.088;5.096;2023-05-07T07:44:21;17.00;99.90
65404;DHT22;52014;52.088;5.096;2023-05-07T07:46:47;17.00;99.90
65404;DHT22;52014;52.088;5.096;2023-05-07T07:49:12;17.10;99.90
65404;DHT22;52014;52.088;5.096;2023-05-07T07:51:38;17.10;99.90
65404;DHT22;52014;52.088;5.096;2023-05-07T07:54:03;17.00;99.90
65404;DHT22;52014;52.088;5.096;2023-05-07T07:56:29;16.80;99.90
65404;DHT22;52014;52.088;5.096;2023-05-07T07:58:54;17.00;99.90
65404;DHT22;52014;52.088;5.096;2023-05-07T08:01:20;16.90;99.90
65404;DHT22;52014;52.088;5.096;2023-05-07T08:03:45;17.00;99.90
65404;DHT22;52014;52.088;5.096;2023-05-07T08:06:11;17.00;99.90
65404;DHT22;52014;52.088;5.096;2023-05-07T08:08:36;17.00;99.90
65404;DHT22;52014;52.088;5.096;2023-05-07T08:11:02;17.10;99.90
65404;DHT22;52014;52.088;5.096;2023-05-07T08:13:27;17.20;99.90
65404;DHT22;52014;52.088;5.096;2023-05-07T08:15:52;17.30;99.90
65404;DHT22;52014;52.088;5.096;2023-05-07T08:18:18;17.40;99.90
65404;DHT22;52014;52.088;5.096;2023-05-07T08:20:43;17.40;99.90
65404;DHT22;52014;52.088;5.096;2023-05-07T08:23:09;17.40;99.90
65404;DHT22;52014;52.088;5.096;2023-05-07T08:25:34;17.50;99.90
65404;DHT22;52014;52.088;5.096;2023-05-07T08:28:00;17.70;99.90
65404;DHT22;52014;52.088;5.096;2023-05-07T08:30:25;17.70;99.90
65404;DHT22;52014;52.088;5.096;2023-05-07T08:32:51;17.70;99.90
65404;DHT22;52014;52.088;5.096;2023-05-07T08:35:16;18.00;99.90
65404;DHT22;52014;52.088;5.096;2023-05-07T08:37:42;18.30;99.90
65404;DHT22;52014;52.088;5.096;2023-05-07T08:40:07;18.50;99.90
65404;DHT22;52014;52.088;5.096;2023-05-07T08:42:35;18.60;99.90
65404;DHT22;52014;52.088;5.096;2023-05-07T08:45:01;18.70;99.90
65404;DHT22;52014;52.088;5.096;2023-05-07T08:47:34;18.90;99.90
65404;DHT22;52014;52.088;5.096;2023-05-07T08:50:01;18.90;99.90
65404;DHT22;52014;52.088;5.096;2023-05-07T08:52:27;19.00;99.90
65404;DHT22;52014;52.088;5.096;2023-05-07T08:54:52;19.10;99.90
65404;DHT22;52014;52.088;5.096;2023-05-07T08:57:18;19.10;99.90
65404;DHT22;52014;52.088;5.096;2023-05-07T08:59:45;18.80;99.90
65404;DHT22;52014;52.088;5.096;2023-05-07T09:02:11;18.50;99.90
65404;DHT22;52014;52.088;5.096;2023-05-07T09:04:36;18.40;99.90
65404;DHT22;52014;52.088;5.096;2023-05-07T09:07:02;18.40;99.90
65404;DHT22;52014;52.088;5.096;2023-05-07T09:09:32;18.40;99.90
65404;DHT22;52014;52.088;5.096;2023-05-07T09:11:58;18.30;99.90
65404;DHT22;52014;52.088;5.096;2023-05-07T09:14:27;18.40;99.90
65404;DHT22;52014;52.088;5.096;2023-05-07T09:16:53;18.50;99.90
65404;DHT22;52014;52.088;5.096;2023-05-07T09:19:22;18.60;99.90
65404;DHT22;52014;52.088;5.096;2023-05-07T09:21:47;18.90;99.90
65404;DHT22;52014;52.088;5.096;2023-05-07T09:24:14;18.90;99.90
65404;DHT22;52014;52.088;5.096;2023-05-07T09:26:40;19.00;99.90
65404;DHT22;52014;52.088;5.096;2023-05-07T09:29:06;18.90;99.90
65404;DHT22;52014;52.088;5.096;2023-05-07T09:31:31;19.10;99.90
65404;DHT22;52014;52.088;5.096;2023-05-07T09:33:57;19.10;99.90
65404;DHT22;52014;52.088;5.096;2023-05-07T09:36:22;19.20;99.90
65404;DHT22;52014;52.088;5.096;2023-05-07T09:38:48;19.10;99.90
65404;DHT22;52014;52.088;5.096;2023-05-07T09:41:14;19.00;99.90
65404;DHT22;52014;52.088;5.096;2023-05-07T09:43:40;19.10;99.90
65404;DHT22;52014;52.088;5.096;2023-05-07T09:46:11;19.20;99.90
65404;DHT22;52014;52.088;5.096;2023-05-07T09:48:37;19.40;99.90
65404;DHT22;52014;52.088;5.096;2023-05-07T09:51:05;19.60;99.90
65404;DHT22;52014;52.088;5.096;2023-05-07T09:53:31;19.80;99.90
65404;DHT22;52014;52.088;5.096;2023-05-07T09:55:58;20.00;99.90
65404;DHT22;52014;52.088;5.096;2023-05-07T09:58:25;20.30;99.90
65404;DHT22;52014;52.088;5.096;2023-05-07T10:00:50;20.60;99.90
65404;DHT22;52014;52.088;5.096;2023-05-07T10:03:16;20.30;99.90
65404;DHT22;52014;52.088;5.096;2023-05-07T10:05:43;20.60;99.90
65404;DHT22;52014;52.088;5.096;2023-05-07T10:08:09;20.70;99.90
65404;DHT22;52014;52.088;5.096;2023-05-07T10:10:35;20.70;99.90
65404;DHT22;52014;52.088;5.096;2023-05-07T10:13:01;20.80;99.90
65404;DHT22;52014;52.088;5.096;2023-05-07T10:15:27;20.80;99.90
65404;DHT22;52014;52.088;5.096;2023-05-07T10:17:53;20.80;99.90
65404;DHT22;52014;52.088;5.096;2023-05-07T10:20:19;20.60;99.90
65404;DHT22;52014;52.088;5.096;2023-05-07T10:22:45;21.00;99.90
65404;DHT22;52014;52.088;5.096;2023-05-07T10:25:18;21.30;99.90
65404;DHT22;52014;52.088;5.096;2023-05-07T10:27:45;21.30;99.90
65404;DHT22;52014;52.088;5.096;2023-05-07T10:30:32;21.10;99.90
65404;DHT22;52014;52.088;5.096;2023-05-07T10:33:01;20.90;99.90
65404;DHT22;52014;52.088;5.096;2023-05-07T10:35:32;21.00;99.90
65404;DHT22;52014;52.088;5.096;2023-05-07T10:37:58;21.00;99.90
65404;DHT22;52014;52.088;5.096;2023-05-07T10:40:23;21.10;99.90
65404;DHT22;52014;52.088;5.096;2023-05-07T10:42:53;21.20;99.90
65404;DHT22;52014;52.088;5.096;2023-05-07T10:45:19;21.20;99.90
65404;DHT22;52014;52.088;5.096;2023-05-07T10:48:26;21.00;99.90
65404;DHT22;52014;52.088;5.096;2023-05-07T10:50:36;21.00;99.90
65404;DHT22;52014;52.088;5.096;2023-05-07T10:55:52;20.80;99.90
65404;DHT22;52014;52.088;5.096;2023-05-07T10:58:28;20.80;99.90
65404;DHT22;52014;52.088;5.096;2023-05-07T11:00:57;20.60;99.90
65404;DHT22;52014;52.088;5.096;2023-05-07T11:03:22;20.70;99.90
65404;DHT22;52014;52.088;5.096;2023-05-07T11:05:48;20.80;99.90
65404;DHT22;52014;52.088;5.096;2023-05-07T11:11:17;20.80;99.90
65404;DHT22;52014;52.088;5.096;2023-05-07T11:13:46;20.70;99.90
65404;DHT22;52014;52.088;5.096;2023-05-07T11:16:21;20.80;99.90
65404;DHT22;52014;52.088;5.096;2023-05-07T11:18:51;21.10;99.90
65404;DHT22;52014;52.088;5.096;2023-05-07T11:21:36;21.10;99.90
65404;DHT22;52014;52.088;5.096;2023-05-07T11:24:02;21.00;99.90
65404;DHT22;52014;52.088;5.096;2023-05-07T11:26:29;21.10;99.90
65404;DHT22;52014;52.088;5.096;2023-05-07T11:28:54;21.20;99.90
65404;DHT22;52014;52.088;5.096;2023-05-07T11:31:21;21.30;99.90
65404;DHT22;52014;52.088;5.096;2023-05-07T11:33:47;21.20;99.90
65404;DHT22;52014;52.088;5.096;2023-05-07T11:36:13;21.30;99.90
65404;DHT22;52014;52.088;5.096;2023-05-07T11:38:38;21.20;99.90
65404;DHT22;52014;52.088;5.096;2023-05-07T11:41:04;21.30;99.90
65404;DHT22;52014;52.088;5.096;2023-05-07T11:43:32;21.30;99.90
65404;DHT22;52014;52.088;5.096;2023-05-07T11:46:31;21.60;99.90
65404;DHT22;52014;52.088;5.096;2023-05-07T11:48:49;21.90;99.90
65404;DHT22;52014;52.088;5.096;2023-05-07T11:51:18;21.70;99.90
65404;DHT22;52014;52.088;5.096;2023-05-07T11:53:44;21.50;99.90
65404;DHT22;52014;52.088;5.096;2023-05-07T11:56:11;21.50;99.90
65404;DHT22;52014;52.088;5.096;2023-05-07T11:58:36;21.60;99.90
65404;DHT22;52014;52.088;5.096;2023-05-07T12:01:02;21.70;99.90
65404;DHT22;52014;52.088;5.096;2023-05-07T12:03:27;21.70;99.90
65404;DHT22;52014;52.088;5.096;2023-05-07T12:05:53;21.80;99.90
65404;DHT22;52014;52.088;5.096;2023-05-07T12:08:19;21.90;99.90
65404;DHT22;52014;52.088;5.096;2023-05-07T12:10:45;21.90;99.90
65404;DHT22;52014;52.088;5.096;2023-05-07T12:13:17;21.80;99.90
65404;DHT22;52014;52.088;5.096;2023-05-07T12:15:43;21.90;99.90
65404;DHT22;52014;52.088;5.096;2023-05-07T12:18:08;22.00;99.90
65404;DHT22;52014;52.088;5.096;2023-05-07T12:20:35;22.00;99.90
65404;DHT22;52014;52.088;5.096;2023-05-07T12:23:01;21.80;99.90
65404;DHT22;52014;52.088;5.096;2023-05-07T12:25:26;21.70;99.90
65404;DHT22;52014;52.088;5.096;2023-05-07T12:27:52;21.90;99.90
65404;DHT22;52014;52.088;5.096;2023-05-07T12:30:18;21.90;99.90
65404;DHT22;52014;52.088;5.096;2023-05-07T12:32:44;21.80;99.90
65404;DHT22;52014;52.088;5.096;2023-05-07T12:35:10;21.80;99.90
65404;DHT22;52014;52.088;5.096;2023-05-07T12:37:35;21.90;99.90
65404;DHT22;52014;52.088;5.096;2023-05-07T12:40:08;21.80;99.90
65404;DHT22;52014;52.088;5.096;2023-05-07T12:42:37;21.90;99.90
65404;DHT22;52014;52.088;5.096;2023-05-07T12:47:34;21.80;99.90
65404;DHT22;52014;52.088;5.096;2023-05-07T12:50:00;22.00;99.90
65404;DHT22;52014;52.088;5.096;2023-05-07T12:52:26;22.10;99.90
65404;DHT22;52014;52.088;5.096;2023-05-07T12:54:51;22.20;99.90
65404;DHT22;52014;52.088;5.096;2023-05-07T12:57:18;22.10;99.90
65404;DHT22;52014;52.088;5.096;2023-05-07T12:59:44;22.00;99.90
65404;DHT22;52014;52.088;5.096;2023-05-07T13:02:09;22.10;99.90
65404;DHT22;52014;52.088;5.096;2023-05-07T13:04:35;22.00;99.90
65404;DHT22;52014;52.088;5.096;2023-05-07T13:07:01;22.00;99.90
65404;DHT22;52014;52.088;5.096;2023-05-07T13:09:26;22.00;99.90
65404;DHT22;52014;52.088;5.096;2023-05-07T13:11:53;21.90;99.90
65404;DHT22;52014;52.088;5.096;2023-05-07T13:14:19;22.00;99.90
65404;DHT22;52014;52.088;5.096;2023-05-07T13:16:49;21.90;99.90
65404;DHT22;52014;52.088;5.096;2023-05-07T13:19:14;22.00;99.90
65404;DHT22;52014;52.088;5.096;2023-05-07T13:21:40;22.10;99.90
65404;DHT22;52014;52.088;5.096;2023-05-07T13:24:05;22.10;99.90
65404;DHT22;52014;52.088;5.096;2023-05-07T13:26:31;22.10;99.90
65404;DHT22;52014;52.088;5.096;2023-05-07T13:28:56;22.00;99.90
65404;DHT22;52014;52.088;5.096;2023-05-07T13:31:22;22.00;99.90
65404;DHT22;52014;52.088;5.096;2023-05-07T13:33:48;22.10;99.90
65404;DHT22;52014;52.088;5.096;2023-05-07T13:36:14;21.90;99.90
65404;DHT22;52014;52.088;5.096;2023-05-07T13:38:39;21.90;99.90
65404;DHT22;52014;52.088;5.096;2023-05-07T13:41:05;22.00;99.90
65404;DHT22;52014;52.088;5.096;2023-05-07T13:43:30;22.10;99.90
65404;DHT22;52014;52.088;5.096;2023-05-07T13:45:58;22.40;99.90
65404;DHT22;52014;52.088;5.096;2023-05-07T13:48:24;22.30;99.90
65404;DHT22;52014;52.088;5.096;2023-05-07T13:50:50;22.40;99.90
65404;DHT22;52014;52.088;5.096;2023-05-07T13:53:15;22.30;99.90
65404;DHT22;52014;52.088;5.096;2023-05-07T13:55:43;22.30;99.90
65404;DHT22;52014;52.088;5.096;2023-05-07T13:58:09;22.30;99.90
65404;DHT22;52014;52.088;5.096;2023-05-07T14:00:34;22.20;99.90
65404;DHT22;52014;52.088;5.096;2023-05-07T14:03:00;22.20;99.90
65404;DHT22;52014;52.088;5.096;2023-05-07T14:05:26;22.20;99.90
65404;DHT22;52014;52.088;5.096;2023-05-07T14:07:53;22.00;99.90
65404;DHT22;52014;52.088;5.096;2023-05-07T14:10:19;22.00;99.90
65404;DHT22;52014;52.088;5.096;2023-05-07T14:12:45;21.90;99.90
65404;DHT22;52014;52.088;5.096;2023-05-07T14:15:10;21.90;99.90
65404;DHT22;52014;52.088;5.096;2023-05-07T14:17:36;21.90;99.90
65404;DHT22;52014;52.088;5.096;2023-05-07T14:20:02;21.90;99.90
65404;DHT22;52014;52.088;5.096;2023-05-07T14:22:29;21.80;99.90
65404;DHT22;52014;52.088;5.096;2023-05-07T14:24:55;21.80;99.90
65404;DHT22;52014;52.088;5.096;2023-05-07T14:27:20;21.80;99.90
65404;DHT22;52014;52.088;5.096;2023-05-07T14:29:46;21.70;99.90
65404;DHT22;52014;52.088;5.096;2023-05-07T14:32:16;21.60;99.90
65404;DHT22;52014;52.088;5.096;2023-05-07T14:34:42;21.50;99.90
65404;DHT22;52014;52.088;5.096;2023-05-07T14:37:07;21.20;99.90
65404;DHT22;52014;52.088;5.096;2023-05-07T14:39:33;20.90;99.90
65404;DHT22;52014;52.088;5.096;2023-05-07T14:41:58;20.70;99.90
65404;DHT22;52014;52.088;5.096;2023-05-07T14:44:23;20.60;99.90
65404;DHT22;52014;52.088;5.096;2023-05-07T14:46:49;20.40;99.90
65404;DHT22;52014;52.088;5.096;2023-05-07T14:49:14;20.30;99.90
65404;DHT22;52014;52.088;5.096;2023-05-07T14:51:42;20.10;99.90
65404;DHT22;52014;52.088;5.096;2023-05-07T14:54:08;20.00;99.90
65404;DHT22;52014;52.088;5.096;2023-05-07T14:56:34;19.90;99.90
65404;DHT22;52014;52.088;5.096;2023-05-07T14:59:00;19.80;99.90
65404;DHT22;52014;52.088;5.096;2023-05-07T15:01:25;19.60;99.90
65404;DHT22;52014;52.088;5.096;2023-05-07T15:03:51;19.30;99.90
65404;DHT22;52014;52.088;5.096;2023-05-07T15:06:16;19.10;99.90
65404;DHT22;52014;52.088;5.096;2023-05-07T15:08:42;18.80;99.90
65404;DHT22;52014;52.088;5.096;2023-05-07T15:11:07;19.00;99.90
65404;DHT22;52014;52.088;5.096;2023-05-07T15:13:33;19.00;99.90
65404;DHT22;52014;52.088;5.096;2023-05-07T15:15:58;19.30;99.90
65404;DHT22;52014;52.088;5.096;2023-05-07T15:18:23;19.20;99.90
65404;DHT22;52014;52.088;5.096;2023-05-07T15:20:49;19.30;99.90
65404;DHT22;52014;52.088;5.096;2023-05-07T15:23:14;19.40;99.90
65404;DHT22;52014;52.088;5.096;2023-05-07T15:25:40;19.50;99.90
65404;DHT22;52014;52.088;5.096;2023-05-07T15:28:05;19.50;99.90
65404;DHT22;52014;52.088;5.096;2023-05-07T15:30:31;19.60;99.90
65404;DHT22;52014;52.088;5.096;2023-05-07T15:32:56;19.60;99.90